• Join FlightAware (Why Join?)
  • Login
  • US Flag 
07:46PM EDT


 

Airport Tracker/Info


-or-


 

Live Flight TrackerFlight Track Log ✈ GJS3618 ✈ 05-Apr-2013 ✈ KORD - KDTW

Flight Track Log - Related Links

Times and Time Zones

All times are in EDT time to prevent confusion due to time zone crossing. See the GJS3618 flight status page for this flight to view local times or setup timezone preferences in your user account.

Time Position Orientation Groundspeed Altitude Reporting Facility
EDT Latitude Longitude Course Direction KTS MPH feet Rate Location/Type
05:20PM 42.0000 -87.9500 North 149 171 2,100  Level Chicago TRACON
05:21PM 42.0500 -87.9333 14° North 194 223 4,100 1,200 Climbing Chicago TRACON
05:22PM 42.2277 -87.8139 10° North  Level FlightAware Approximate
05:22PM 42.1489 -87.8850 20° North 239 275 5,300  Level Chicago Center
05:23PM 42.3164 -87.7917 10° North  Level FlightAware Approximate
05:23PM 42.2158 -87.8544 19° North 252 290 8,400  Level Chicago Center
05:24PM 42.4025 -87.7571 20° North  Level FlightAware Approximate
05:24PM 42.2872 -87.8331 12° North 262 302 11,200  Level Chicago Center
05:25PM 42.4909 -87.7352 North  Level FlightAware Approximate
05:26PM 42.3719 -87.8281 North 268 308 14,400  Level Chicago Center
05:27PM 42.4547 -87.7872 20° North 312 359 15,000 780 Climbing Chicago Center
05:28PM 42.5586 -87.7319 21° North 372 428 16,100 1,320 Climbing Chicago Center
05:29PM 42.6547 -87.6853 20° North 385 443 17,800 1,500 Climbing Chicago Center
05:30PM 42.7317 -87.5778 46° Northeast 423 487 19,300 1,320 Climbing Chicago Center
05:31PM 42.7750 -87.3864 73° East 455 524 20,600 780 Climbing Chicago Center
05:32PM 42.8092 -87.2403 72° East 465 535 21,000 180 Climbing Chicago Center
05:33PM 42.8558 -87.0347 73° East 473 544 21,000  Level Chicago Center
05:34PM 42.8950 -86.8650 72° East 472 543 21,000  Level Chicago Center
05:35PM 42.9325 -86.6947 73° East 469 540 21,000  Level Chicago Center
05:36PM 42.9708 -86.5247 73° East 469 540 21,000  Level Chicago Center
05:37PM 43.0086 -86.3519 73° East 474 545 21,000  Level Chicago Center
05:38PM 43.0461 -86.1794 73° East 473 544 21,000  Level Chicago Center
05:39PM 43.0858 -85.9967 73° East 480 552 21,000  Level Chicago Center
05:40PM 43.1231 -85.8186 74° East 472 543 21,000  Level Chicago Center
05:41PM 43.1606 -85.6439 74° East 474 545 21,000  Level Chicago Center
05:42PM 43.2044 -85.4344 74° East 477 549 21,000  Level Chicago Center
05:43PM 43.2411 -85.2608 74° East 475 547 21,000  Level Chicago Center
05:44PM 43.2258 -85.1111 98° East 469 540 21,000  Level Cleveland Center
05:45PM 43.1914 -84.9233 104° East 479 551 21,000  Level Cleveland Center
05:46PM 43.1567 -84.7386 104° East 493 567 21,000  Level Cleveland Center
05:47PM 43.1250 -84.5658 104° East 487 560 21,000  Level Cleveland Center
05:47PM 43.1194 -84.5333 103° East 462 532 21,000  Level Chicago Center
05:48PM 43.0822 -84.3386 105° East 444 511 21,000 -60 Level Chicago Center
05:49PM 43.0608 -84.2433 107° East 448 516 20,900 -1,560 Descending Cleveland Center
05:50PM 43.0281 -84.0853 106° East 441 507 18,400 -2,400 Descending Cleveland Center
05:51PM 43.0033 -83.9389 103° East 421 484 16,100 -2,400 Descending Cleveland Center
05:52PM 42.9569 -83.8089 116° Southeast 394 453 13,600 -2,040 Descending Cleveland Center
05:53PM 42.8647 -83.7503 155° Southeast 349 402 12,100 -840 Descending Cleveland Center
05:54PM 42.7642 -83.6942 158° South 362 417 12,000 -60 Descending Cleveland Center
05:55PM 42.6431 -83.6206 156° South 410 472 12,000  Level Cleveland Center
05:56PM 42.5547 -83.5711 158° South 405 466 12,000  Level Cleveland Center
05:57PM 42.4475 -83.5267 163° South 410 472 12,000  Level Cleveland Center
05:58PM 42.3633 -83.4772 157° South 310 357 12,000  Level FAA TRACON SMA TRACON (SMA)
05:58PM 42.3417 -83.4608 151° Southeast 293 337 12,000  Level FAA TRACON SMA TRACON (SMA)
05:59PM 42.3211 -83.4486 156° South 266 306 12,000 -780 Level FAA TRACON SMA TRACON (SMA)
05:59PM 42.2975 -83.4550 191° South 223 257 11,500 -1,500 Descending FAA TRACON SMA TRACON (SMA)
05:59PM 42.2800 -83.4656 204° Southwest 226 260 11,000 -1,380 Descending FAA TRACON SMA TRACON (SMA)
06:00PM 42.2628 -83.4761 204° Southwest 224 258 10,600 -1,200 Descending FAA TRACON SMA TRACON (SMA)
06:00PM 42.2419 -83.4897 206° Southwest 218 251 10,200 -1,380 Descending FAA TRACON SMA TRACON (SMA)
06:00PM 42.2253 -83.5003 205° Southwest 220 253 9,700 -1,500 Descending FAA TRACON SMA TRACON (SMA)
06:01PM 42.2083 -83.5117 206° Southwest 221 254 9,200 -1,380 Descending FAA TRACON SMA TRACON (SMA)
06:01PM 42.1886 -83.5258 208° Southwest 215 247 8,800 -1,380 Descending FAA TRACON SMA TRACON (SMA)
06:01PM 42.1725 -83.5369 207° Southwest 211 243 8,300 -1,080 Descending FAA TRACON SMA TRACON (SMA)
06:02PM 42.1525 -83.5508 207° Southwest 210 242 8,100 -480 Descending FAA TRACON SMA TRACON (SMA)
06:02PM 42.1364 -83.5625 208° Southwest 211 243 8,000 -180 Descending FAA TRACON SMA TRACON (SMA)
06:02PM 42.1206 -83.5739 208° Southwest 211 243 8,000  Level FAA TRACON SMA TRACON (SMA)
06:03PM 42.1017 -83.5881 209° Southwest 205 236 8,000  Level FAA TRACON SMA TRACON (SMA)
06:03PM 42.0872 -83.5975 206° Southwest 194 223 8,000 -300 Level FAA TRACON SMA TRACON (SMA)
06:03PM 42.0733 -83.6081 209° Southwest 190 219 7,800 -900 Descending FAA TRACON SMA TRACON (SMA)
06:04PM 42.0558 -83.6208 208° Southwest 187 215 7,400 -1,200 Descending FAA TRACON SMA TRACON (SMA)
06:04PM 42.0422 -83.6314 210° Southwest 186 214 7,000 -1,200 Descending FAA TRACON SMA TRACON (SMA)
06:04PM 42.0286 -83.6425 211° Southwest 186 214 6,600 -1,200 Descending FAA TRACON SMA TRACON (SMA)
06:05PM 42.0117 -83.6567 212° Southwest 186 214 6,200 -900 Descending FAA TRACON SMA TRACON (SMA)
06:05PM 41.9983 -83.6683 213° Southwest 186 214 6,000 -300 Descending FAA TRACON SMA TRACON (SMA)
06:05PM 41.9853 -83.6800 214° Southwest 185 213 6,000  Level FAA TRACON SMA TRACON (SMA)
06:06PM 41.9664 -83.6764 172° South 183 211 6,000  Level FAA TRACON SMA TRACON (SMA)
06:06PM 41.9567 -83.6578 125° Southeast 186 214 6,000  Level FAA TRACON SMA TRACON (SMA)
06:06PM 41.9508 -83.6331 108° East 187 215 6,000  Level FAA TRACON SMA TRACON (SMA)
06:07PM 41.9483 -83.6128 99° East 181 208 6,000  Level FAA TRACON SMA TRACON (SMA)